Terminal Aerodrome Forecast
Issued by NWS

Home | Current Version | Previous Version | Graphics & Text | Print | Product List | Glossary On
Versions: 1 2 3 4 5 6 7 8 9 10 11 12 13 14 15 16 17 18 19 20 21 22 23 24 25 26 27 28 29 30
433
FTUS43 KABR 051127
TAFATY
TAF
KATY 051127Z 0512/0612 18010KT P6SM OVC060
      TEMPO 0515/0517 5SM -SN BKN025
     FM051700 21008KT 3SM -SN OVC025
     FM051900 33010KT P6SM BKN080
     FM060100 19006KT P6SM SCT250=

USA.gov is the U.S. government's official web portal to all federal, state and local government web resources and services.